createdAt,value
2018-05-13T00:00:29.605Z,99.90
2018-05-13T00:02:57.363Z,99.90
2018-05-13T00:05:25.036Z,99.90
2018-05-13T00:07:52.731Z,99.90
2018-05-13T00:10:20.411Z,99.90
2018-05-13T00:12:48.861Z,99.90
2018-05-13T00:15:16.544Z,99.90
2018-05-13T00:17:44.255Z,99.90
2018-05-13T00:20:11.918Z,99.90
2018-05-13T00:22:39.611Z,99.90
2018-05-13T00:25:07.298Z,99.90
2018-05-13T00:27:35.750Z,99.90
2018-05-13T00:30:03.437Z,99.90
2018-05-13T00:32:31.183Z,99.90
2018-05-13T00:34:58.847Z,99.90
2018-05-13T00:37:26.611Z,99.90
2018-05-13T00:39:54.363Z,99.90
2018-05-13T00:42:22.142Z,99.90
2018-05-13T00:44:49.891Z,99.90
2018-05-13T00:47:17.559Z,99.90
2018-05-13T00:49:45.323Z,99.90
2018-05-13T00:52:13.100Z,99.90
2018-05-13T00:54:46.705Z,99.90
2018-05-13T00:57:14.468Z,99.90
2018-05-13T00:59:42.131Z,99.90
2018-05-13T01:02:10.655Z,99.90
2018-05-13T01:04:38.342Z,99.90
2018-05-13T01:07:06.019Z,99.90
2018-05-13T01:09:33.723Z,99.90
2018-05-13T01:12:01.409Z,99.90
2018-05-13T01:14:29.108Z,99.90
2018-05-13T01:16:56.777Z,99.90
2018-05-13T01:19:24.499Z,99.90
2018-05-13T01:21:52.173Z,99.90
2018-05-13T01:24:20.194Z,99.90
2018-05-13T01:26:48.628Z,99.90
2018-05-13T01:29:17.151Z,99.90
2018-05-13T01:31:44.824Z,99.90
2018-05-13T01:34:12.571Z,99.90
2018-05-13T01:36:40.258Z,99.90
2018-05-13T01:39:07.940Z,99.90
2018-05-13T01:41:35.617Z,99.90
2018-05-13T01:44:04.084Z,99.90
2018-05-13T01:46:31.763Z,99.90
2018-05-13T01:49:00.295Z,99.90
2018-05-13T01:51:28.057Z,99.90
2018-05-13T01:53:55.751Z,99.90
2018-05-13T01:56:23.452Z,99.90
2018-05-13T01:58:51.989Z,99.90
2018-05-13T02:01:19.651Z,99.90
2018-05-13T02:03:47.417Z,99.90
2018-05-13T02:06:15.159Z,99.90
2018-05-13T02:08:42.817Z,99.90
2018-05-13T02:11:10.523Z,99.90
2018-05-13T02:13:38.256Z,99.90
2018-05-13T02:16:06.007Z,99.90
2018-05-13T02:18:33.774Z,99.90
2018-05-13T02:21:01.488Z,99.90
2018-05-13T02:23:29.199Z,99.90
2018-05-13T02:25:56.890Z,99.90
2018-05-13T02:28:24.560Z,99.90
2018-05-13T02:30:52.245Z,99.90
2018-05-13T02:33:20.698Z,99.90
2018-05-13T02:35:48.388Z,99.90
2018-05-13T02:38:16.063Z,99.90
2018-05-13T02:40:44.508Z,99.90
2018-05-13T02:43:12.184Z,99.90
2018-05-13T02:45:39.858Z,99.90
2018-05-13T02:48:08.400Z,99.90
2018-05-13T02:50:36.076Z,99.90
2018-05-13T02:53:03.819Z,99.90
2018-05-13T02:55:31.495Z,99.90
2018-05-13T02:57:59.252Z,99.90
2018-05-13T03:00:26.953Z,99.90
2018-05-13T03:02:54.619Z,99.90
2018-05-13T03:05:23.067Z,99.90
2018-05-13T03:07:50.813Z,99.90
2018-05-13T03:10:18.566Z,99.90
2018-05-13T03:12:46.260Z,99.90
2018-05-13T03:15:14.011Z,99.90
2018-05-13T03:17:41.687Z,99.90
2018-05-13T03:20:09.399Z,99.90
2018-05-13T03:22:37.846Z,99.90
2018-05-13T03:25:05.537Z,99.90
2018-05-13T03:27:33.226Z,99.90
2018-05-13T03:30:00.935Z,99.90
2018-05-13T03:32:28.614Z,99.90
2018-05-13T03:34:56.367Z,99.90
2018-05-13T03:37:24.137Z,99.90
2018-05-13T03:39:51.779Z,99.90
2018-05-13T03:42:19.537Z,99.90
2018-05-13T03:44:47.285Z,99.90
2018-05-13T03:47:14.986Z,99.90
2018-05-13T03:49:42.729Z,99.90
2018-05-13T03:52:10.411Z,99.90
2018-05-13T03:54:38.085Z,99.90
2018-05-13T03:57:05.818Z,99.90
2018-05-13T03:59:33.492Z,99.90
2018-05-13T04:02:01.183Z,99.90
2018-05-13T04:04:29.690Z,99.90
2018-05-13T04:06:58.209Z,99.90
2018-05-13T04:09:31.923Z,99.90
2018-05-13T04:12:05.543Z,99.90
2018-05-13T04:14:39.223Z,99.90
2018-05-13T04:17:06.914Z,99.90
2018-05-13T04:19:34.588Z,99.90
2018-05-13T04:22:02.279Z,99.90
2018-05-13T04:24:30.795Z,99.90
2018-05-13T04:26:58.486Z,99.90
2018-05-13T04:29:26.217Z,99.90
2018-05-13T04:31:53.909Z,99.90
2018-05-13T04:34:22.452Z,99.90
2018-05-13T04:36:50.116Z,99.90
2018-05-13T04:39:17.783Z,99.90
2018-05-13T04:41:45.491Z,99.90
2018-05-13T04:44:13.166Z,99.90
2018-05-13T04:46:40.857Z,99.90
2018-05-13T04:49:08.535Z,99.90
2018-05-13T04:51:36.230Z,99.90
2018-05-13T04:54:04.675Z,99.90
2018-05-13T04:56:32.364Z,99.90
2018-05-13T04:59:00.034Z,99.90
2018-05-13T05:01:28.491Z,99.90
2018-05-13T05:03:56.156Z,99.90
2018-05-13T05:06:24.422Z,99.90
2018-05-13T05:08:52.123Z,99.90
2018-05-13T05:11:19.854Z,99.90
2018-05-13T05:13:47.515Z,99.90
2018-05-13T05:16:15.380Z,99.90
2018-05-13T05:18:43.150Z,99.90
2018-05-13T05:21:10.906Z,99.90
2018-05-13T05:23:38.578Z,99.90
2018-05-13T05:26:06.295Z,99.90
2018-05-13T05:28:33.988Z,99.90
2018-05-13T05:31:01.668Z,99.90
2018-05-13T05:33:29.407Z,99.90
2018-05-13T05:35:57.081Z,99.90
2018-05-13T05:38:24.864Z,99.90
2018-05-13T05:40:52.518Z,99.90
2018-05-13T05:43:20.285Z,99.90
2018-05-13T05:45:48.024Z,99.90
2018-05-13T05:48:15.757Z,99.90
2018-05-13T05:50:43.388Z,99.90
2018-05-13T05:53:11.141Z,99.90
2018-05-13T05:55:38.878Z,99.90
2018-05-13T05:58:06.671Z,99.90
2018-05-13T06:00:34.411Z,99.90
2018-05-13T06:03:02.201Z,99.90
2018-05-13T06:05:29.851Z,99.90
2018-05-13T06:07:57.521Z,99.90
2018-05-13T06:10:25.228Z,99.90
2018-05-13T06:12:53.686Z,99.90
2018-05-13T06:15:21.347Z,99.90
2018-05-13T06:17:49.064Z,99.90
2018-05-13T06:20:16.843Z,99.90
2018-05-13T06:22:44.515Z,99.90
2018-05-13T06:25:12.226Z,99.90
2018-05-13T06:27:39.878Z,99.90
2018-05-13T06:30:07.581Z,99.90
2018-05-13T06:32:35.259Z,99.90
2018-05-13T06:35:02.943Z,99.90
2018-05-13T06:37:30.619Z,99.90
2018-05-13T06:39:58.294Z,99.90
2018-05-13T06:42:26.729Z,99.90
2018-05-13T06:44:54.529Z,99.90
2018-05-13T06:47:22.204Z,99.90
2018-05-13T06:49:49.891Z,99.90
2018-05-13T06:52:17.607Z,99.90
2018-05-13T06:54:45.262Z,99.90
2018-05-13T06:57:13.029Z,99.90
2018-05-13T06:59:40.682Z,99.90
2018-05-13T07:02:08.439Z,99.90
2018-05-13T07:04:36.203Z,99.90
2018-05-13T07:07:03.880Z,99.90
2018-05-13T07:09:31.561Z,99.90
2018-05-13T07:11:59.225Z,99.90
2018-05-13T07:14:26.913Z,99.90
2018-05-13T07:16:55.432Z,99.90
2018-05-13T07:19:23.204Z,99.90
2018-05-13T07:21:50.872Z,99.90
2018-05-13T07:24:18.556Z,99.90
2018-05-13T07:26:47.105Z,99.90
2018-05-13T07:29:14.800Z,99.90
2018-05-13T07:31:42.463Z,99.90
2018-05-13T07:34:10.165Z,99.90
2018-05-13T07:36:38.788Z,99.90
2018-05-13T07:39:06.464Z,99.90
2018-05-13T07:41:34.217Z,99.90
2018-05-13T07:44:01.979Z,99.90
2018-05-13T07:46:29.663Z,99.90
2018-05-13T07:48:57.402Z,99.90
2018-05-13T07:51:25.100Z,99.90
2018-05-13T07:53:52.877Z,99.90
2018-05-13T07:56:20.635Z,99.90
2018-05-13T07:58:48.309Z,99.90
2018-05-13T08:01:16.027Z,99.90
2018-05-13T08:03:43.703Z,99.90
2018-05-13T08:06:11.444Z,99.90
2018-05-13T08:08:39.853Z,99.90
2018-05-13T08:11:07.532Z,99.90
2018-05-13T08:13:35.262Z,99.90
2018-05-13T08:16:03.020Z,99.90
2018-05-13T08:18:30.793Z,99.90
2018-05-13T08:20:58.500Z,99.90
2018-05-13T08:23:26.175Z,99.90
2018-05-13T08:25:53.855Z,99.90
2018-05-13T08:28:21.570Z,99.90
2018-05-13T08:30:49.263Z,99.90
2018-05-13T08:33:16.990Z,99.90
2018-05-13T08:35:44.687Z,99.90
2018-05-13T08:38:12.384Z,99.90
2018-05-13T08:40:40.083Z,99.90
2018-05-13T08:43:07.828Z,99.90
2018-05-13T08:45:35.523Z,99.90
2018-05-13T08:48:03.187Z,99.90
2018-05-13T08:50:30.929Z,99.90
2018-05-13T08:52:58.713Z,99.90
2018-05-13T08:55:26.457Z,99.90
2018-05-13T08:57:54.201Z,99.90
2018-05-13T09:00:21.891Z,99.90
2018-05-13T09:02:49.559Z,99.90
2018-05-13T09:05:17.268Z,99.90
2018-05-13T09:07:45.814Z,99.90
2018-05-13T09:10:13.477Z,99.90
2018-05-13T09:12:41.173Z,99.90
2018-05-13T09:15:10.545Z,99.90
2018-05-13T09:17:38.214Z,99.90
2018-05-13T09:20:05.895Z,99.90
2018-05-13T09:22:34.426Z,99.90
2018-05-13T09:25:02.097Z,99.90
2018-05-13T09:27:29.851Z,99.90
2018-05-13T09:29:57.535Z,99.90
2018-05-13T09:32:25.280Z,98.30
2018-05-13T09:34:52.969Z,99.20
2018-05-13T09:37:20.664Z,98.00
2018-05-13T09:39:49.131Z,98.90
2018-05-13T09:42:16.858Z,98.90
2018-05-13T09:44:44.545Z,97.90
2018-05-13T09:47:12.285Z,96.20
2018-05-13T09:49:39.972Z,95.00
2018-05-13T09:52:07.645Z,95.70
2018-05-13T09:54:35.328Z,94.10
2018-05-13T09:57:03.802Z,93.20
2018-05-13T09:59:31.470Z,93.20
2018-05-13T10:01:59.169Z,93.00
2018-05-13T10:04:26.949Z,92.80
2018-05-13T10:06:54.637Z,92.50
2018-05-13T10:09:22.319Z,91.70
2018-05-13T10:11:50.011Z,92.00
2018-05-13T10:14:18.458Z,90.80
2018-05-13T10:16:46.141Z,90.70
2018-05-13T10:19:14.578Z,89.50
2018-05-13T10:21:42.326Z,89.40
2018-05-13T10:24:10.003Z,86.60
2018-05-13T10:26:37.745Z,83.20
2018-05-13T10:29:05.443Z,86.50
2018-05-13T10:31:34.037Z,79.70
2018-05-13T10:34:01.776Z,80.90
2018-05-13T10:36:29.609Z,80.60
2018-05-13T10:38:57.221Z,80.20
2018-05-13T10:41:24.987Z,75.60
2018-05-13T10:43:52.727Z,77.90
2018-05-13T10:46:20.518Z,74.60
2018-05-13T10:48:48.229Z,75.40
2018-05-13T10:51:15.946Z,75.70
2018-05-13T10:53:43.624Z,70.30
2018-05-13T10:56:11.346Z,67.10
2018-05-13T10:58:39.111Z,70.20
2018-05-13T11:01:06.788Z,69.60
2018-05-13T11:03:34.512Z,71.60
2018-05-13T11:06:02.949Z,65.60
2018-05-13T11:08:30.631Z,65.60
2018-05-13T11:10:58.363Z,65.10
2018-05-13T11:13:26.055Z,63.20
2018-05-13T11:15:53.800Z,65.70
2018-05-13T11:18:21.537Z,66.70
2018-05-13T11:20:49.312Z,59.40
2018-05-13T11:23:16.977Z,60.90
2018-05-13T11:25:44.726Z,60.00
2018-05-13T11:28:12.460Z,62.30
2018-05-13T11:30:40.885Z,61.90
2018-05-13T11:33:08.569Z,61.80
2018-05-13T11:35:36.234Z,58.40
2018-05-13T11:38:04.711Z,59.00
2018-05-13T11:40:32.388Z,58.40
2018-05-13T11:43:00.069Z,57.20
2018-05-13T11:45:27.848Z,57.60
2018-05-13T11:47:55.475Z,59.30
2018-05-13T11:50:23.211Z,57.70
2018-05-13T11:52:50.906Z,57.40
2018-05-13T11:55:18.584Z,57.30
2018-05-13T11:57:46.270Z,57.30
2018-05-13T12:00:13.968Z,57.30
2018-05-13T12:02:41.731Z,56.50
2018-05-13T12:05:09.481Z,54.90
2018-05-13T12:07:37.172Z,57.10
2018-05-13T12:10:04.841Z,54.90
2018-05-13T12:12:32.553Z,53.00
2018-05-13T12:15:00.245Z,49.90
2018-05-13T12:17:28.135Z,46.40
2018-05-13T12:19:55.885Z,41.50
2018-05-13T12:22:23.565Z,38.50
2018-05-13T12:24:51.307Z,33.50
2018-05-13T12:27:18.992Z,33.10
2018-05-13T12:29:46.722Z,30.00
2018-05-13T12:32:14.501Z,30.00
2018-05-13T12:34:42.173Z,28.80
2018-05-13T12:37:09.925Z,28.20
2018-05-13T12:39:37.605Z,26.00
2018-05-13T12:42:05.351Z,27.10
2018-05-13T12:44:33.047Z,25.90
2018-05-13T12:47:00.728Z,25.20
2018-05-13T12:49:28.449Z,24.90
2018-05-13T12:51:56.107Z,24.90
2018-05-13T12:54:23.812Z,25.20
2018-05-13T12:56:51.480Z,25.70
2018-05-13T12:59:19.166Z,24.80
2018-05-13T13:01:47.613Z,23.30
2018-05-13T13:04:15.345Z,23.30
2018-05-13T13:06:43.019Z,23.20
2018-05-13T13:09:10.712Z,22.80
2018-05-13T13:11:39.129Z,23.90
2018-05-13T13:14:06.820Z,24.00
2018-05-13T13:16:34.498Z,24.50
2018-05-13T13:19:02.247Z,24.60
2018-05-13T13:21:30.028Z,23.70
2018-05-13T13:23:57.701Z,24.80
2018-05-13T13:26:25.456Z,24.50
2018-05-13T13:28:53.130Z,24.50
2018-05-13T13:31:20.860Z,24.20
2018-05-13T13:33:48.562Z,24.90
2018-05-13T13:36:16.239Z,24.00
2018-05-13T13:38:44.749Z,24.60
2018-05-13T13:41:12.475Z,24.40
2018-05-13T13:43:41.272Z,24.10
2018-05-13T13:46:09.308Z,24.00
2018-05-13T13:48:37.250Z,23.30
2018-05-13T13:51:06.524Z,24.00
2018-05-13T13:53:34.456Z,24.10
2018-05-13T13:56:02.718Z,23.90
2018-05-13T13:58:31.804Z,23.90
2018-05-13T14:00:59.612Z,24.10
2018-05-13T14:03:29.021Z,23.90
2018-05-13T14:05:58.103Z,24.00
2018-05-13T14:08:27.159Z,23.90
2018-05-13T14:10:55.135Z,23.90
2018-05-13T14:13:23.091Z,24.60
2018-05-13T14:15:51.954Z,24.90
2018-05-13T14:18:21.231Z,24.70
2018-05-13T14:20:49.196Z,24.70
2018-05-13T14:23:17.217Z,26.20
2018-05-13T14:25:45.711Z,25.10
2018-05-13T14:28:13.467Z,25.10
2018-05-13T14:30:42.180Z,25.30
2018-05-13T14:33:11.337Z,24.90
2018-05-13T14:35:40.187Z,26.00
2018-05-13T14:38:07.953Z,25.60
2018-05-13T14:40:35.591Z,25.80
2018-05-13T14:43:03.350Z,25.20
2018-05-13T14:45:31.236Z,25.70
2018-05-13T14:47:58.937Z,25.10
2018-05-13T14:50:27.392Z,25.00
2018-05-13T14:52:55.144Z,25.00
2018-05-13T14:55:22.821Z,25.40
2018-05-13T14:57:50.510Z,25.90
2018-05-13T15:00:18.248Z,25.70
2018-05-13T15:02:45.911Z,25.20
2018-05-13T15:07:47.815Z,25.10
2018-05-13T15:10:15.556Z,24.60
2018-05-13T15:12:43.223Z,25.80
2018-05-13T15:15:10.983Z,26.00
2018-05-13T15:17:38.729Z,25.90
2018-05-13T15:20:06.413Z,26.30
2018-05-13T15:22:34.202Z,26.20
2018-05-13T15:25:01.848Z,26.20
2018-05-13T15:27:29.576Z,25.50
2018-05-13T15:29:57.352Z,25.40
2018-05-13T15:32:25.033Z,25.60
2018-05-13T15:34:52.698Z,26.20
2018-05-13T15:37:20.481Z,26.90
2018-05-13T15:39:48.101Z,26.20
2018-05-13T15:42:15.867Z,25.80
2018-05-13T15:44:43.537Z,26.10
2018-05-13T15:47:11.245Z,25.90
2018-05-13T15:49:39.776Z,25.90
2018-05-13T15:52:07.459Z,25.80
2018-05-13T15:54:35.329Z,25.70
2018-05-13T15:57:03.062Z,25.70
2018-05-13T15:59:30.749Z,26.30
2018-05-13T16:01:58.522Z,25.80
2018-05-13T16:04:26.288Z,26.00
2018-05-13T16:06:53.972Z,25.60
2018-05-13T16:09:21.755Z,26.40
2018-05-13T16:11:50.282Z,25.50
2018-05-13T16:14:17.945Z,25.50
2018-05-13T16:16:45.631Z,26.00
2018-05-13T16:19:13.395Z,26.30
2018-05-13T16:21:41.081Z,26.70
2018-05-13T16:24:09.527Z,26.80
2018-05-13T16:26:37.202Z,26.80
2018-05-13T16:29:04.867Z,26.20
2018-05-13T16:31:32.555Z,26.60
2018-05-13T16:34:01.110Z,26.50
2018-05-13T16:36:28.849Z,26.50
2018-05-13T16:38:56.533Z,26.50
2018-05-13T16:41:24.200Z,26.80
2018-05-13T16:43:51.961Z,27.00
2018-05-13T16:46:19.701Z,26.30
2018-05-13T16:48:47.403Z,26.60
2018-05-13T16:51:15.106Z,26.80
2018-05-13T16:53:42.795Z,26.20
2018-05-13T16:56:10.473Z,26.60
2018-05-13T16:58:38.167Z,27.00
2018-05-13T17:01:06.085Z,27.40
2018-05-13T17:03:33.866Z,27.10
2018-05-13T17:06:01.626Z,27.60
2018-05-13T17:08:29.315Z,27.20
2018-05-13T17:10:57.148Z,27.50
2018-05-13T17:13:24.835Z,27.70
2018-05-13T17:15:52.526Z,27.30
2018-05-13T17:18:21.086Z,27.40
2018-05-13T17:20:48.730Z,27.30
2018-05-13T17:23:16.510Z,27.30
2018-05-13T17:25:44.182Z,27.80
2018-05-13T17:28:11.910Z,28.40
2018-05-13T17:30:39.582Z,27.90
2018-05-13T17:33:07.273Z,28.20
2018-05-13T17:35:34.967Z,28.60
2018-05-13T17:38:03.510Z,28.40
2018-05-13T17:40:31.263Z,28.40
2018-05-13T17:42:59.018Z,28.20
2018-05-13T17:45:26.705Z,28.90
2018-05-13T17:47:54.533Z,30.00
2018-05-13T17:50:22.225Z,29.10
2018-05-13T17:52:49.923Z,29.70
2018-05-13T17:55:17.664Z,28.90
2018-05-13T17:57:45.430Z,29.10
2018-05-13T18:00:13.139Z,29.90
2018-05-13T18:02:40.935Z,30.00
2018-05-13T18:05:08.613Z,29.90
2018-05-13T18:07:36.306Z,31.10
2018-05-13T18:10:04.051Z,30.70
2018-05-13T18:12:31.712Z,31.00
2018-05-13T18:14:59.441Z,31.60
2018-05-13T18:17:27.164Z,31.80
2018-05-13T18:19:54.888Z,32.60
2018-05-13T18:22:22.595Z,32.30
2018-05-13T18:24:50.412Z,32.90
2018-05-13T18:27:17.954Z,34.20
2018-05-13T18:29:45.732Z,34.80
2018-05-13T18:32:13.422Z,35.70
2018-05-13T18:34:41.121Z,35.90
2018-05-13T18:37:09.550Z,38.70
2018-05-13T18:39:37.333Z,38.70
2018-05-13T18:42:05.011Z,38.80
2018-05-13T18:44:32.698Z,39.10
2018-05-13T18:47:01.229Z,39.80
2018-05-13T18:49:28.995Z,39.80
2018-05-13T18:51:56.668Z,41.40
2018-05-13T18:54:24.370Z,40.80
2018-05-13T18:56:52.831Z,42.60
2018-05-13T18:59:20.620Z,42.50
2018-05-13T19:01:49.063Z,42.90
2018-05-13T19:04:16.801Z,42.90
2018-05-13T19:06:44.571Z,44.30
2018-05-13T19:09:12.257Z,44.20
2018-05-13T19:11:39.934Z,44.40
2018-05-13T19:14:07.614Z,44.90
2018-05-13T19:16:36.046Z,46.80
2018-05-13T19:19:03.874Z,46.80
2018-05-13T19:21:31.508Z,46.80
2018-05-13T19:23:59.229Z,46.40
2018-05-13T19:26:26.889Z,47.40
2018-05-13T19:28:54.578Z,47.80
2018-05-13T19:31:22.392Z,48.40
2018-05-13T19:33:50.083Z,49.20
2018-05-13T19:36:17.768Z,50.80
2018-05-13T19:38:45.443Z,51.40
2018-05-13T19:41:13.134Z,51.30
2018-05-13T19:43:41.574Z,52.10
2018-05-13T19:46:09.266Z,52.00
2018-05-13T19:48:37.043Z,52.80
2018-05-13T19:51:04.777Z,52.90
2018-05-13T19:53:32.419Z,52.40
2018-05-13T19:56:00.114Z,53.40
2018-05-13T19:58:27.851Z,53.50
2018-05-13T20:00:55.537Z,53.90
2018-05-13T20:03:23.399Z,55.50
2018-05-13T20:05:51.687Z,54.90
2018-05-13T20:08:19.349Z,54.80
2018-05-13T20:10:47.062Z,55.00
2018-05-13T20:13:14.854Z,55.40
2018-05-13T20:15:42.535Z,56.40
2018-05-13T20:18:10.293Z,56.30
2018-05-13T20:20:38.470Z,57.40
2018-05-13T20:23:11.957Z,57.60
2018-05-13T20:25:39.662Z,57.30
2018-05-13T20:28:07.328Z,57.70
2018-05-13T20:30:35.859Z,58.00
2018-05-13T20:33:03.571Z,57.90
2018-05-13T20:35:32.099Z,59.30
2018-05-13T20:37:59.775Z,59.30
2018-05-13T20:40:27.467Z,59.00
2018-05-13T20:42:55.216Z,59.30
2018-05-13T20:45:22.949Z,59.30
2018-05-13T20:47:50.719Z,59.30
2018-05-13T20:50:18.411Z,60.50
2018-05-13T20:52:46.155Z,60.70
2018-05-13T20:55:13.842Z,59.60
2018-05-13T20:57:41.589Z,60.70
2018-05-13T21:00:09.274Z,60.70
2018-05-13T21:02:37.003Z,63.00
2018-05-13T21:05:04.780Z,61.90
2018-05-13T21:07:32.448Z,62.80
2018-05-13T21:10:00.116Z,65.40
2018-05-13T21:12:27.886Z,64.40
2018-05-13T21:14:55.530Z,65.30
2018-05-13T21:17:23.227Z,64.80
2018-05-13T21:19:50.947Z,67.50
2018-05-13T21:22:18.751Z,69.10
2018-05-13T21:24:46.410Z,69.00
2018-05-13T21:27:14.115Z,70.60
2018-05-13T21:29:41.815Z,69.60
2018-05-13T21:32:09.575Z,68.30
2018-05-13T21:34:37.260Z,71.80
2018-05-13T21:37:05.004Z,72.30
2018-05-13T21:39:32.666Z,71.80
2018-05-13T21:42:00.451Z,72.90
2018-05-13T21:44:28.110Z,75.50
2018-05-13T21:46:55.794Z,75.70
2018-05-13T21:49:23.517Z,72.40
2018-05-13T21:51:51.200Z,74.90
2018-05-13T21:54:18.986Z,73.60
2018-05-13T21:56:46.647Z,74.90
2018-05-13T21:59:14.398Z,72.90
2018-05-13T22:01:42.054Z,74.50
2018-05-13T22:04:09.730Z,73.80
2018-05-13T22:06:37.423Z,74.20
2018-05-13T22:09:05.848Z,74.90
2018-05-13T22:11:33.531Z,74.80
2018-05-13T22:14:01.371Z,74.40
2018-05-13T22:16:29.079Z,74.40
2018-05-13T22:18:56.756Z,75.50
2018-05-13T22:21:25.198Z,78.30
2018-05-13T22:23:52.884Z,78.30
2018-05-13T22:26:21.345Z,78.00
2018-05-13T22:28:49.010Z,77.90
2018-05-13T22:31:16.720Z,77.50
2018-05-13T22:33:45.245Z,79.30
2018-05-13T22:36:13.025Z,79.30
2018-05-13T22:38:40.772Z,78.90
2018-05-13T22:41:08.456Z,81.30
2018-05-13T22:43:36.127Z,80.10
2018-05-13T22:46:03.807Z,81.80
2018-05-13T22:48:32.365Z,81.40
2018-05-13T22:51:00.002Z,81.10
2018-05-13T22:53:27.688Z,83.00
2018-05-13T22:55:55.361Z,82.60
2018-05-13T22:58:23.146Z,83.50
2018-05-13T23:00:50.769Z,82.40
2018-05-13T23:03:18.440Z,83.80
2018-05-13T23:05:46.113Z,84.00
2018-05-13T23:08:13.805Z,86.30
2018-05-13T23:10:42.245Z,90.10
2018-05-13T23:13:09.917Z,89.40
2018-05-13T23:15:37.599Z,88.00
2018-05-13T23:18:05.327Z,89.80
2018-05-13T23:20:33.202Z,88.60
2018-05-13T23:23:00.768Z,88.00
2018-05-13T23:25:28.438Z,90.10
2018-05-13T23:27:56.118Z,90.80
2018-05-13T23:30:23.796Z,91.70
2018-05-13T23:32:52.267Z,90.40
2018-05-13T23:35:19.921Z,90.40
2018-05-13T23:37:48.426Z,91.00
2018-05-13T23:40:16.855Z,91.60
2018-05-13T23:42:44.551Z,91.60
2018-05-13T23:45:12.234Z,92.90
2018-05-13T23:47:40.687Z,93.00
2018-05-13T23:50:08.393Z,92.90
2018-05-13T23:52:36.050Z,93.60
2018-05-13T23:55:03.740Z,93.80
2018-05-13T23:57:31.507Z,93.50
2018-05-13T23:59:59.165Z,95.40
